createdAt,value
2023-05-05T00:00:41.891Z,9.99
2023-05-05T00:01:41.888Z,9.74
2023-05-05T00:02:42.844Z,10.39
2023-05-05T00:03:41.897Z,10.04
2023-05-05T00:04:41.868Z,10.00
2023-05-05T00:05:41.867Z,9.70
2023-05-05T00:06:41.829Z,10.86
2023-05-05T00:07:42.156Z,11.55
2023-05-05T00:08:41.806Z,10.74
2023-05-05T00:09:41.804Z,10.76
2023-05-05T00:10:41.786Z,11.15
2023-05-05T00:11:41.783Z,11.01
2023-05-05T00:12:42.198Z,10.86
2023-05-05T00:13:41.776Z,10.62
2023-05-05T00:14:41.741Z,10.65
2023-05-05T00:15:41.738Z,10.88
2023-05-05T00:16:42.192Z,10.75
2023-05-05T00:17:42.301Z,11.72
2023-05-05T00:18:41.718Z,11.61
2023-05-05T00:19:41.692Z,11.19
2023-05-05T00:20:41.915Z,11.56
2023-05-05T00:21:41.979Z,10.80
2023-05-05T00:22:41.672Z,9.60
2023-05-05T00:23:41.647Z,11.26
2023-05-05T00:24:41.657Z,10.74
2023-05-05T00:25:41.898Z,11.04
2023-05-05T00:26:42.371Z,11.68
2023-05-05T00:27:41.605Z,10.15
2023-05-05T00:28:41.609Z,10.93
2023-05-05T00:29:41.595Z,11.55
2023-05-05T00:30:41.929Z,10.91
2023-05-05T00:31:41.605Z,11.78
2023-05-05T00:32:41.577Z,11.55
2023-05-05T00:33:41.554Z,13.00
2023-05-05T00:34:41.538Z,13.98
2023-05-05T00:35:41.583Z,11.96
2023-05-05T00:36:41.508Z,12.21
2023-05-05T00:37:41.517Z,11.02
2023-05-05T00:38:41.502Z,12.05
2023-05-05T00:39:41.789Z,11.77
2023-05-05T00:40:41.794Z,11.51
2023-05-05T00:41:41.471Z,10.85
2023-05-05T00:42:41.462Z,11.06
2023-05-05T00:43:41.468Z,10.15
2023-05-05T00:44:41.823Z,10.97
2023-05-05T00:45:41.431Z,11.26
2023-05-05T00:46:41.432Z,10.75
2023-05-05T00:47:41.431Z,11.00
2023-05-05T00:48:41.394Z,11.13
2023-05-05T00:49:41.710Z,10.84
2023-05-05T00:50:41.371Z,10.33
2023-05-05T00:51:41.367Z,10.91
2023-05-05T00:52:41.350Z,10.13
2023-05-05T00:53:41.662Z,10.90
2023-05-05T00:54:41.707Z,10.45
2023-05-05T00:55:41.331Z,9.73
2023-05-05T00:56:41.315Z,9.91
2023-05-05T00:57:41.304Z,10.73
2023-05-05T00:58:41.645Z,10.56
2023-05-05T00:59:41.283Z,9.42
2023-05-05T01:00:41.270Z,9.71
2023-05-05T01:01:41.278Z,9.89
2023-05-05T01:02:41.371Z,9.60
2023-05-05T01:03:41.789Z,9.84
2023-05-05T01:04:41.230Z,9.65
2023-05-05T01:05:41.225Z,10.47
2023-05-05T01:06:41.220Z,9.11
2023-05-05T01:07:41.221Z,9.35
2023-05-05T01:08:41.368Z,9.78
2023-05-05T01:09:41.176Z,10.19
2023-05-05T01:10:41.165Z,10.13
2023-05-05T01:11:41.163Z,9.29
2023-05-05T01:12:41.406Z,9.01
2023-05-05T01:13:41.148Z,10.18
2023-05-05T01:14:41.119Z,10.05
2023-05-05T01:15:41.119Z,9.92
2023-05-05T01:16:41.172Z,9.25
2023-05-05T01:17:41.467Z,10.16
2023-05-05T01:18:41.076Z,11.06
2023-05-05T01:19:41.070Z,9.34
2023-05-05T01:20:41.058Z,9.13
2023-05-05T01:21:41.379Z,9.42
2023-05-05T01:22:41.349Z,10.54
2023-05-05T01:23:41.028Z,10.21
2023-05-05T01:24:41.023Z,9.41
2023-05-05T01:25:41.011Z,9.87
2023-05-05T01:26:41.796Z,9.40
2023-05-05T01:27:40.991Z,10.17
2023-05-05T01:28:40.969Z,8.40
2023-05-05T01:29:40.971Z,9.59
2023-05-05T01:30:40.952Z,9.77
2023-05-05T01:31:41.536Z,10.08
2023-05-05T01:32:40.967Z,9.20
2023-05-05T01:33:40.924Z,10.15
2023-05-05T01:34:40.908Z,9.72
2023-05-05T01:35:41.095Z,8.51
2023-05-05T01:36:41.517Z,9.55
2023-05-05T01:37:40.888Z,9.91
2023-05-05T01:38:40.866Z,9.48
2023-05-05T01:39:40.867Z,9.85
2023-05-05T01:40:41.041Z,9.62
2023-05-05T01:41:40.844Z,9.23
2023-05-05T01:42:40.827Z,9.54
2023-05-05T01:43:40.826Z,10.36
2023-05-05T01:44:40.802Z,10.20
2023-05-05T01:45:41.150Z,10.61
2023-05-05T01:46:40.784Z,9.70
2023-05-05T01:47:40.808Z,10.46
2023-05-05T01:48:42.305Z,10.62
2023-05-05T01:49:41.086Z,10.36
2023-05-05T01:50:41.014Z,9.28
2023-05-05T01:51:40.742Z,10.47
2023-05-05T01:52:40.716Z,10.86
2023-05-05T01:53:40.713Z,9.63
2023-05-05T01:54:41.023Z,10.05
2023-05-05T01:55:40.706Z,10.44
2023-05-05T01:56:40.687Z,10.13
2023-05-05T01:57:40.670Z,10.45
2023-05-05T01:58:40.651Z,9.83
2023-05-05T01:59:41.084Z,10.72
2023-05-05T02:00:40.633Z,10.25
2023-05-05T02:01:40.653Z,11.40
2023-05-05T02:02:40.727Z,9.79
2023-05-05T02:03:40.968Z,10.37
2023-05-05T02:04:41.251Z,10.37
2023-05-05T02:05:40.591Z,10.65
2023-05-05T02:06:40.578Z,10.28
2023-05-05T02:07:40.563Z,10.69
2023-05-05T02:08:40.563Z,10.58
2023-05-05T02:09:40.541Z,10.76
2023-05-05T02:10:40.525Z,11.43
2023-05-05T02:11:40.538Z,10.56
2023-05-05T02:12:40.529Z,10.96
2023-05-05T02:13:40.835Z,10.80
2023-05-05T02:14:40.482Z,11.26
2023-05-05T02:15:40.537Z,10.65
2023-05-05T02:16:40.468Z,9.92
2023-05-05T02:17:40.838Z,10.78
2023-05-05T02:18:40.793Z,10.52
2023-05-05T02:19:40.439Z,10.65
2023-05-05T02:20:40.429Z,10.99
2023-05-05T02:21:40.420Z,10.41
2023-05-05T02:22:40.759Z,10.69
2023-05-05T02:23:40.402Z,10.70
2023-05-05T02:24:40.396Z,11.27
2023-05-05T02:25:40.382Z,10.25
2023-05-05T02:26:40.361Z,11.47
2023-05-05T02:27:40.732Z,11.95
2023-05-05T02:28:40.345Z,11.10
2023-05-05T02:29:40.336Z,11.85
2023-05-05T02:30:40.322Z,13.78
2023-05-05T02:31:41.066Z,12.49
2023-05-05T02:32:40.614Z,11.50
2023-05-05T02:33:40.296Z,11.60
2023-05-05T02:34:40.274Z,12.25
2023-05-05T02:35:40.277Z,10.57
2023-05-05T02:36:40.659Z,9.77
2023-05-05T02:37:40.258Z,10.41
2023-05-05T02:38:40.237Z,11.87
2023-05-05T02:39:40.231Z,9.74
2023-05-05T02:40:40.209Z,10.74
2023-05-05T02:41:40.534Z,10.65
2023-05-05T02:42:40.238Z,10.55
2023-05-05T02:43:40.185Z,10.86
2023-05-05T02:44:40.174Z,10.39
2023-05-05T02:45:40.645Z,9.44
2023-05-05T02:46:41.001Z,10.12
2023-05-05T02:47:40.262Z,9.89
2023-05-05T02:48:40.127Z,10.86
2023-05-05T02:49:40.152Z,11.64
2023-05-05T02:50:40.392Z,10.62
2023-05-05T02:51:40.111Z,10.40
2023-05-05T02:52:40.079Z,9.83
2023-05-05T02:53:40.098Z,10.59
2023-05-05T02:54:40.064Z,9.89
2023-05-05T02:55:40.391Z,9.25
2023-05-05T02:56:40.048Z,10.86
2023-05-05T02:57:40.055Z,9.97
2023-05-05T02:58:40.025Z,10.17
2023-05-05T02:59:40.338Z,10.09
2023-05-05T03:00:40.258Z,10.96
2023-05-05T03:01:40.033Z,11.50
2023-05-05T03:02:40.066Z,11.07
2023-05-05T03:03:40.117Z,11.86
2023-05-05T03:04:40.314Z,11.59
2023-05-05T03:05:39.950Z,11.49
2023-05-05T03:06:39.937Z,11.31
2023-05-05T03:07:39.931Z,10.63
2023-05-05T03:08:40.256Z,11.43
2023-05-05T03:09:39.952Z,10.46
2023-05-05T03:10:39.843Z,10.40
2023-05-05T03:11:39.889Z,10.81
2023-05-05T03:12:39.871Z,9.82
2023-05-05T03:13:40.145Z,11.29
2023-05-05T03:14:39.797Z,10.36
2023-05-05T03:15:39.791Z,10.05
2023-05-05T03:16:39.834Z,10.49
2023-05-05T03:17:39.793Z,9.58
2023-05-05T03:18:39.784Z,10.25
2023-05-05T03:19:39.804Z,10.78
2023-05-05T03:20:39.740Z,10.42
2023-05-05T03:21:39.723Z,10.51
2023-05-05T03:22:40.064Z,10.67
2023-05-05T03:23:40.084Z,10.43
2023-05-05T03:24:39.686Z,10.97
2023-05-05T03:25:39.683Z,10.39
2023-05-05T03:26:39.665Z,10.22
2023-05-05T03:27:39.679Z,10.38
2023-05-05T03:29:00.643Z,9.80
2023-05-05T03:29:39.653Z,8.97
2023-05-05T03:30:39.636Z,10.26
2023-05-05T03:31:39.835Z,10.26
2023-05-05T03:32:39.666Z,9.81
2023-05-05T03:33:39.612Z,9.51
2023-05-05T03:34:39.586Z,9.51
2023-05-05T03:35:39.576Z,8.83
2023-05-05T03:36:39.556Z,10.07
2023-05-05T03:37:40.510Z,10.41
2023-05-05T03:38:39.537Z,10.15
2023-05-05T03:39:39.530Z,8.65
2023-05-05T03:40:44.350Z,10.26
2023-05-05T03:41:39.808Z,10.53
2023-05-05T03:42:39.499Z,9.72
2023-05-05T03:43:39.484Z,9.63
2023-05-05T03:44:39.470Z,9.76
2023-05-05T03:45:39.501Z,10.00
2023-05-05T03:46:39.803Z,9.36
2023-05-05T03:47:39.461Z,9.77
2023-05-05T03:48:39.435Z,9.37
2023-05-05T03:49:39.424Z,10.28
2023-05-05T03:50:39.425Z,10.79
2023-05-05T03:51:39.693Z,10.24
2023-05-05T03:52:39.403Z,9.92
2023-05-05T03:53:39.390Z,10.41
2023-05-05T03:54:39.361Z,10.09
2023-05-05T03:55:39.717Z,9.86
2023-05-05T03:56:39.344Z,9.94
2023-05-05T03:57:39.343Z,11.08
2023-05-05T03:58:39.361Z,9.92
2023-05-05T03:59:39.324Z,10.15
2023-05-05T04:00:39.648Z,10.40
2023-05-05T04:01:39.303Z,10.43
2023-05-05T04:02:39.340Z,10.08
2023-05-05T04:03:39.359Z,9.77
2023-05-05T04:04:39.286Z,9.69
2023-05-05T04:05:39.557Z,11.00
2023-05-05T04:06:39.245Z,9.18
2023-05-05T04:07:39.235Z,10.15
2023-05-05T04:08:39.223Z,11.02
2023-05-05T04:09:39.249Z,10.72
2023-05-05T04:10:39.198Z,10.93
2023-05-05T04:11:39.197Z,10.37
2023-05-05T04:12:39.212Z,11.08
2023-05-05T04:13:39.180Z,9.92
2023-05-05T04:14:39.475Z,10.79
2023-05-05T04:15:39.163Z,10.89
2023-05-05T04:16:39.136Z,10.02
2023-05-05T04:17:39.163Z,9.50
2023-05-05T04:18:39.144Z,10.94
2023-05-05T04:19:39.146Z,11.17
2023-05-05T04:20:39.116Z,10.39
2023-05-05T04:21:39.087Z,10.16
2023-05-05T04:22:39.070Z,11.02
2023-05-05T04:23:39.092Z,10.89
2023-05-05T04:24:39.051Z,10.70
2023-05-05T04:25:39.049Z,10.00
2023-05-05T04:26:39.034Z,10.96
2023-05-05T04:27:39.026Z,10.60
2023-05-05T04:28:39.038Z,9.61
2023-05-05T04:29:39.009Z,9.72
2023-05-05T04:30:38.991Z,10.23
2023-05-05T04:31:39.000Z,10.49
2023-05-05T04:32:39.360Z,12.07
2023-05-05T04:33:39.313Z,12.15
2023-05-05T04:34:38.942Z,10.73
2023-05-05T04:35:38.937Z,11.84
2023-05-05T04:36:38.932Z,10.74
2023-05-05T04:37:39.222Z,11.07
2023-05-05T04:38:38.918Z,11.28
2023-05-05T04:39:38.893Z,11.00
2023-05-05T04:40:38.880Z,10.50
2023-05-05T04:41:38.867Z,11.25
2023-05-05T04:42:38.901Z,10.93
2023-05-05T04:43:38.854Z,12.08
2023-05-05T04:44:38.845Z,10.72
2023-05-05T04:45:38.828Z,11.95
2023-05-05T04:46:38.852Z,10.77
2023-05-05T04:47:38.852Z,11.59
2023-05-05T04:48:38.800Z,11.23
2023-05-05T04:49:38.790Z,11.52
2023-05-05T04:50:38.909Z,10.67
2023-05-05T04:51:38.781Z,10.73
2023-05-05T04:52:38.770Z,10.48
2023-05-05T04:53:38.753Z,11.23
2023-05-05T04:54:38.742Z,11.16
2023-05-05T04:55:38.722Z,10.87
2023-05-05T04:56:38.727Z,11.37
2023-05-05T04:57:38.733Z,11.68
2023-05-05T04:58:38.695Z,10.57
2023-05-05T04:59:38.679Z,10.43
2023-05-05T05:00:38.700Z,11.36
2023-05-05T05:01:39.174Z,10.40
2023-05-05T05:02:38.767Z,10.66
2023-05-05T05:03:38.692Z,12.07
2023-05-05T05:04:38.634Z,10.22
2023-05-05T05:05:39.156Z,10.84
2023-05-05T05:06:38.605Z,11.81
2023-05-05T05:07:38.597Z,10.64
2023-05-05T05:08:38.590Z,10.60
2023-05-05T05:09:38.574Z,11.18
2023-05-05T05:10:38.845Z,11.05
2023-05-05T05:11:38.587Z,10.70
2023-05-05T05:12:38.639Z,10.39
2023-05-05T05:13:38.533Z,11.58
2023-05-05T05:14:38.611Z,10.24
2023-05-05T05:15:38.953Z,10.84
2023-05-05T05:16:38.599Z,11.85
2023-05-05T05:17:38.510Z,10.30
2023-05-05T05:18:38.509Z,10.67
2023-05-05T05:19:38.808Z,11.08
2023-05-05T05:20:38.488Z,10.65
2023-05-05T05:21:38.466Z,11.50
2023-05-05T05:22:38.453Z,10.66
2023-05-05T05:23:38.430Z,10.48
2023-05-05T05:24:38.705Z,11.20
2023-05-05T05:25:38.407Z,10.53
2023-05-05T05:26:38.405Z,11.91
2023-05-05T05:27:38.382Z,11.38
2023-05-05T05:28:38.399Z,11.58
2023-05-05T05:29:38.394Z,10.95
2023-05-05T05:30:38.365Z,11.67
2023-05-05T05:31:38.352Z,12.35
2023-05-05T05:32:38.425Z,11.03
2023-05-05T05:33:38.396Z,12.11
2023-05-05T05:34:38.315Z,12.23
2023-05-05T05:35:38.304Z,12.04
2023-05-05T05:36:38.298Z,11.76
2023-05-05T05:37:38.284Z,11.44
2023-05-05T05:38:38.617Z,11.76
2023-05-05T05:39:38.257Z,11.47
2023-05-05T05:40:38.264Z,11.34
2023-05-05T05:41:38.240Z,12.12
2023-05-05T05:42:38.406Z,12.09
2023-05-05T05:43:38.554Z,11.32
2023-05-05T05:44:38.223Z,11.75
2023-05-05T05:45:38.233Z,11.47
2023-05-05T05:46:38.250Z,10.57
2023-05-05T05:47:38.828Z,11.23
2023-05-05T05:48:38.212Z,11.37
2023-05-05T05:49:38.156Z,11.75
2023-05-05T05:50:38.150Z,9.72
2023-05-05T05:51:38.182Z,11.56
2023-05-05T05:52:38.139Z,10.67
2023-05-05T05:53:38.108Z,10.56
2023-05-05T05:54:38.110Z,10.91
2023-05-05T05:55:38.086Z,11.34
2023-05-05T05:56:38.406Z,9.94
2023-05-05T05:57:38.749Z,10.76
2023-05-05T05:58:38.073Z,11.37
2023-05-05T05:59:38.045Z,10.67
2023-05-05T06:00:38.037Z,10.70
2023-05-05T06:01:38.047Z,9.98
2023-05-05T06:02:38.168Z,10.27
2023-05-05T06:03:38.107Z,10.67
2023-05-05T06:04:38.015Z,11.35
2023-05-05T06:05:37.988Z,10.57
2023-05-05T06:06:37.998Z,10.48
2023-05-05T06:07:37.963Z,10.44
2023-05-05T06:08:37.969Z,11.04
2023-05-05T06:09:37.959Z,11.01
2023-05-05T06:10:37.958Z,10.82
2023-05-05T06:11:38.344Z,11.02
2023-05-05T06:12:37.987Z,10.74
2023-05-05T06:13:37.899Z,10.43
2023-05-05T06:14:37.902Z,10.09
2023-05-05T06:15:38.235Z,9.88
2023-05-05T06:16:37.878Z,10.68
2023-05-05T06:17:37.916Z,10.46
2023-05-05T06:18:37.857Z,10.36
2023-05-05T06:19:37.837Z,10.82
2023-05-05T06:20:38.201Z,11.33
2023-05-05T06:21:37.832Z,10.62
2023-05-05T06:22:37.846Z,10.58
2023-05-05T06:23:37.798Z,11.06
2023-05-05T06:24:38.107Z,11.19
2023-05-05T06:25:38.109Z,11.55
2023-05-05T06:26:37.768Z,11.28
2023-05-05T06:27:37.770Z,11.53
2023-05-05T06:28:37.761Z,11.53
2023-05-05T06:29:38.090Z,11.10
2023-05-05T06:30:37.742Z,12.76
2023-05-05T06:31:37.757Z,12.48
2023-05-05T06:32:37.797Z,12.23
2023-05-05T06:33:37.705Z,11.83
2023-05-05T06:34:38.041Z,12.07
2023-05-05T06:35:37.689Z,12.17
2023-05-05T06:36:37.712Z,13.05
2023-05-05T06:37:37.693Z,12.32
2023-05-05T06:38:38.499Z,10.54
2023-05-05T06:39:38.002Z,11.66
2023-05-05T06:40:37.650Z,11.78
2023-05-05T06:41:37.653Z,11.52
2023-05-05T06:42:37.631Z,11.21
2023-05-05T06:43:37.940Z,11.36
2023-05-05T06:44:37.602Z,11.63
2023-05-05T06:45:37.596Z,11.48
2023-05-05T06:46:37.655Z,11.18
2023-05-05T06:47:37.603Z,11.32
2023-05-05T06:48:37.631Z,11.32
2023-05-05T06:49:37.549Z,10.89
2023-05-05T06:50:37.553Z,11.28
2023-05-05T06:51:37.538Z,9.75
2023-05-05T06:52:37.749Z,10.59
2023-05-05T06:53:37.809Z,10.35
2023-05-05T06:54:37.513Z,10.26
2023-05-05T06:55:37.489Z,11.11
2023-05-05T06:56:37.495Z,10.88
2023-05-05T06:57:37.482Z,11.01
2023-05-05T06:58:37.462Z,8.54
2023-05-05T06:59:37.445Z,10.57
2023-05-05T07:00:37.463Z,10.83
2023-05-05T07:01:37.433Z,12.18
2023-05-05T07:02:38.402Z,10.47
2023-05-05T07:03:37.432Z,11.13
2023-05-05T07:04:37.409Z,10.41
2023-05-05T07:05:37.383Z,11.03
2023-05-05T07:06:37.402Z,10.76
2023-05-05T07:07:37.386Z,10.90
2023-05-05T07:08:37.356Z,10.22
2023-05-05T07:09:37.337Z,10.78
2023-05-05T07:10:37.336Z,9.95
2023-05-05T07:11:38.046Z,10.26
2023-05-05T07:12:37.340Z,10.45
2023-05-05T07:13:37.316Z,10.52
2023-05-05T07:14:37.292Z,10.14
2023-05-05T07:15:37.282Z,9.66
2023-05-05T07:16:38.196Z,9.73
2023-05-05T07:17:37.300Z,10.05
2023-05-05T07:18:37.249Z,10.98
2023-05-05T07:19:37.228Z,10.00
2023-05-05T07:20:38.014Z,9.74
2023-05-05T07:21:37.565Z,9.92
2023-05-05T07:22:37.198Z,9.31
2023-05-05T07:23:37.179Z,9.85
2023-05-05T07:24:37.172Z,9.77
2023-05-05T07:25:37.520Z,9.59
2023-05-05T07:26:37.160Z,10.24
2023-05-05T07:27:37.146Z,9.39
2023-05-05T07:28:37.128Z,8.35
2023-05-05T07:29:37.110Z,9.48
2023-05-05T07:30:37.807Z,9.43
2023-05-05T07:31:37.098Z,8.95
2023-05-05T07:32:37.122Z,8.68
2023-05-05T07:33:37.070Z,8.44
2023-05-05T07:34:37.512Z,8.86
2023-05-05T07:35:37.377Z,9.19
2023-05-05T07:36:37.033Z,9.59
2023-05-05T07:37:37.030Z,9.93
2023-05-05T07:38:37.015Z,9.42
2023-05-05T07:39:37.868Z,9.63
2023-05-05T07:40:36.985Z,9.42
2023-05-05T07:41:36.973Z,8.83
2023-05-05T07:42:36.967Z,9.35
2023-05-05T07:43:38.316Z,9.08
2023-05-05T07:44:37.266Z,9.96
2023-05-05T07:45:36.933Z,9.42
2023-05-05T07:46:37.012Z,9.95
2023-05-05T07:47:36.939Z,9.46
2023-05-05T07:48:37.838Z,9.68
2023-05-05T07:49:37.368Z,9.37
2023-05-05T07:50:36.888Z,9.64
2023-05-05T07:51:36.882Z,9.26
2023-05-05T07:52:46.716Z,9.41
2023-05-05T07:53:37.155Z,9.67
2023-05-05T07:54:36.932Z,9.85
2023-05-05T07:55:36.827Z,9.75
2023-05-05T07:56:36.822Z,9.50
2023-05-05T07:57:36.800Z,9.13
2023-05-05T07:58:37.507Z,9.21
2023-05-05T07:59:36.775Z,8.72
2023-05-05T08:00:36.775Z,7.82
2023-05-05T08:01:36.756Z,8.15
2023-05-05T08:02:37.395Z,7.75
2023-05-05T08:03:37.268Z,7.85
2023-05-05T08:04:36.784Z,7.40
2023-05-05T08:05:36.715Z,7.70
2023-05-05T08:06:36.701Z,7.00
2023-05-05T08:07:37.251Z,7.22
2023-05-05T08:08:36.720Z,7.18
2023-05-05T08:09:36.674Z,7.31
2023-05-05T08:10:36.667Z,7.49
2023-05-05T08:11:36.650Z,7.80
2023-05-05T08:12:37.423Z,8.09
2023-05-05T08:13:36.690Z,7.42
2023-05-05T08:14:36.625Z,7.74
2023-05-05T08:15:36.617Z,7.67
2023-05-05T08:16:37.339Z,6.84
2023-05-05T08:17:37.323Z,7.34
2023-05-05T08:18:36.706Z,7.50
2023-05-05T08:19:36.577Z,7.60
2023-05-05T08:20:36.564Z,7.41
2023-05-05T08:21:36.858Z,6.74
2023-05-05T08:22:36.545Z,7.42
2023-05-05T08:23:36.533Z,7.38
2023-05-05T08:24:36.523Z,7.65
2023-05-05T08:25:36.533Z,7.02
2023-05-05T08:26:36.882Z,8.57
2023-05-05T08:27:36.480Z,7.65
2023-05-05T08:28:36.520Z,7.34
2023-05-05T08:29:36.472Z,7.60
2023-05-05T08:30:36.836Z,7.30
2023-05-05T08:31:37.415Z,7.31
2023-05-05T08:32:36.464Z,7.42
2023-05-05T08:33:36.419Z,7.29
2023-05-05T08:34:36.417Z,7.32
2023-05-05T08:35:36.741Z,7.12
2023-05-05T08:36:36.408Z,6.94
2023-05-05T08:37:36.382Z,6.78
2023-05-05T08:38:36.368Z,7.36
2023-05-05T08:39:36.364Z,7.79
2023-05-05T08:40:36.670Z,7.89
2023-05-05T08:41:36.348Z,7.53
2023-05-05T08:42:38.719Z,7.14
2023-05-05T08:43:36.314Z,8.02
2023-05-05T08:44:36.700Z,7.80
2023-05-05T08:45:36.635Z,7.92
2023-05-05T08:46:36.305Z,8.32
2023-05-05T08:47:36.282Z,7.62
2023-05-05T08:48:36.258Z,7.59
2023-05-05T08:49:37.193Z,7.98
2023-05-05T08:50:36.253Z,8.35
2023-05-05T08:51:36.217Z,7.55
2023-05-05T08:52:36.311Z,8.02
2023-05-05T08:53:36.196Z,7.68
2023-05-05T08:54:36.497Z,8.09
2023-05-05T08:55:36.188Z,7.46
2023-05-05T08:56:36.164Z,6.97
2023-05-05T08:57:36.169Z,7.90
2023-05-05T08:58:37.013Z,7.57
2023-05-05T08:59:36.491Z,6.89
2023-05-05T09:00:36.111Z,7.73
2023-05-05T09:01:36.162Z,7.85
2023-05-05T09:02:36.149Z,8.47
2023-05-05T09:03:36.915Z,8.10
2023-05-05T09:04:36.071Z,8.51
2023-05-05T09:05:36.064Z,7.37
2023-05-05T09:06:36.070Z,8.04
2023-05-05T09:07:36.049Z,8.04
2023-05-05T09:08:36.833Z,8.29
2023-05-05T09:09:36.025Z,8.36
2023-05-05T09:10:36.012Z,9.00
2023-05-05T09:11:36.013Z,8.14
2023-05-05T09:12:36.290Z,7.85
2023-05-05T09:13:36.290Z,8.19
2023-05-05T09:14:35.971Z,8.09
2023-05-05T09:15:35.963Z,8.43
2023-05-05T09:16:35.973Z,8.49
2023-05-05T09:17:36.312Z,9.28
2023-05-05T09:18:35.913Z,8.97
2023-05-05T09:19:35.915Z,9.12
2023-05-05T09:20:35.924Z,8.87
2023-05-05T09:21:35.894Z,9.45
2023-05-05T09:22:36.652Z,8.56
2023-05-05T09:23:35.877Z,8.18
2023-05-05T09:24:35.856Z,8.66
2023-05-05T09:25:35.852Z,9.14
2023-05-05T09:26:36.180Z,9.04
2023-05-05T09:27:36.128Z,8.99
2023-05-05T09:28:35.821Z,9.09
2023-05-05T09:29:35.813Z,8.95
2023-05-05T09:30:35.875Z,9.29
2023-05-05T09:31:36.581Z,8.99
2023-05-05T09:32:35.804Z,8.71
2023-05-05T09:33:35.767Z,9.08
2023-05-05T09:34:35.754Z,8.72
2023-05-05T09:35:35.775Z,8.18
2023-05-05T09:36:36.079Z,8.58
2023-05-05T09:37:35.723Z,8.37
2023-05-05T09:38:35.709Z,7.70
2023-05-05T09:39:35.706Z,9.06
2023-05-05T09:40:36.382Z,9.36
2023-05-05T09:41:35.713Z,8.98
2023-05-05T09:42:35.666Z,9.00
2023-05-05T09:43:35.662Z,8.89
2023-05-05T09:44:35.637Z,8.32
2023-05-05T09:45:35.957Z,9.47
2023-05-05T09:46:36.586Z,9.35
2023-05-05T09:47:35.681Z,8.40
2023-05-05T09:48:35.620Z,9.45
2023-05-05T09:49:35.599Z,9.62
2023-05-05T09:50:36.349Z,8.26
2023-05-05T09:51:35.582Z,7.96
2023-05-05T09:52:35.558Z,8.20
2023-05-05T09:53:35.562Z,9.27
2023-05-05T09:54:35.886Z,8.58
2023-05-05T09:55:35.908Z,8.76
2023-05-05T09:56:35.518Z,8.24
2023-05-05T09:57:35.505Z,9.06
2023-05-05T09:58:35.514Z,9.23
2023-05-05T09:59:36.406Z,9.03
2023-05-05T10:00:35.480Z,8.98
2023-05-05T10:01:35.511Z,8.38
2023-05-05T10:02:35.479Z,9.28
2023-05-05T10:03:35.463Z,7.96
2023-05-05T10:04:36.202Z,10.05
2023-05-05T10:05:35.437Z,9.16
2023-05-05T10:06:35.411Z,8.27
2023-05-05T10:07:35.411Z,9.50
2023-05-05T10:08:35.755Z,9.97
2023-05-05T10:09:35.730Z,8.24
2023-05-05T10:10:35.374Z,7.98
2023-05-05T10:11:35.371Z,7.48
2023-05-05T10:12:35.388Z,8.91
2023-05-05T10:13:35.799Z,8.48
2023-05-05T10:14:35.700Z,9.23
2023-05-05T10:15:35.354Z,8.15
2023-05-05T10:16:35.324Z,8.96
2023-05-05T10:17:35.342Z,8.87
2023-05-05T10:18:36.179Z,9.30
2023-05-05T10:19:35.279Z,8.60
2023-05-05T10:20:35.270Z,8.13
2023-05-05T10:21:35.257Z,7.87
2023-05-05T10:22:35.570Z,9.08
2023-05-05T10:23:35.549Z,9.62
2023-05-05T10:24:35.238Z,10.05
2023-05-05T10:25:35.331Z,10.09
2023-05-05T10:26:35.205Z,10.80
2023-05-05T10:27:35.553Z,10.82
2023-05-05T10:28:35.181Z,10.78
2023-05-05T10:29:35.177Z,11.89
2023-05-05T10:30:35.172Z,10.81
2023-05-05T10:31:35.180Z,10.98
2023-05-05T10:32:56.052Z,11.60
2023-05-05T10:33:35.235Z,12.26
2023-05-05T10:34:35.141Z,11.62
2023-05-05T10:35:35.116Z,10.56
2023-05-05T10:36:35.473Z,11.95
2023-05-05T10:37:35.606Z,11.37
2023-05-05T10:38:35.076Z,11.84
2023-05-05T10:39:35.074Z,11.91
2023-05-05T10:40:35.104Z,10.82
2023-05-05T10:41:35.294Z,11.96
2023-05-05T10:42:35.086Z,11.36
2023-05-05T10:43:35.103Z,12.01
2023-05-05T10:44:35.121Z,11.43
2023-05-05T10:45:35.107Z,11.70
2023-05-05T10:46:35.922Z,11.34
2023-05-05T10:47:35.046Z,13.02
2023-05-05T10:48:35.045Z,12.67
2023-05-05T10:49:35.005Z,14.21
2023-05-05T10:50:35.757Z,13.06
2023-05-05T10:51:40.685Z,12.65
2023-05-05T10:52:34.950Z,13.53
2023-05-05T10:53:34.931Z,12.90
2023-05-05T10:54:37.701Z,13.52
2023-05-05T10:55:35.253Z,13.65
2023-05-05T10:56:34.908Z,13.70
2023-05-05T10:57:34.889Z,14.60
2023-05-05T10:58:43.636Z,13.08
2023-05-05T10:59:34.871Z,13.57
2023-05-05T11:00:35.659Z,13.34
2023-05-05T11:01:35.158Z,13.61
2023-05-05T11:02:34.883Z,12.37
2023-05-05T11:03:34.849Z,12.64
2023-05-05T11:04:35.303Z,12.89
2023-05-05T11:05:35.114Z,13.10
2023-05-05T11:06:34.795Z,12.89
2023-05-05T11:07:34.781Z,13.35
2023-05-05T11:08:34.773Z,13.92
2023-05-05T11:09:35.480Z,14.00
2023-05-05T11:10:34.752Z,13.49
2023-05-05T11:11:34.745Z,12.77
2023-05-05T11:12:37.288Z,11.94
2023-05-05T11:13:34.722Z,12.64
2023-05-05T11:14:35.016Z,12.67
2023-05-05T11:15:34.707Z,13.71
2023-05-05T11:16:34.698Z,13.04
2023-05-05T11:17:34.722Z,11.41
2023-05-05T11:18:35.562Z,14.25
2023-05-05T11:19:35.450Z,12.68
2023-05-05T11:20:34.656Z,13.78
2023-05-05T11:21:34.638Z,14.11
2023-05-05T11:22:34.639Z,14.95
2023-05-05T11:23:34.935Z,13.26
2023-05-05T11:24:34.613Z,13.27
2023-05-05T11:25:34.596Z,12.32
2023-05-05T11:26:34.573Z,12.66
2023-05-05T11:27:34.576Z,13.18
2023-05-05T11:28:34.619Z,14.01
2023-05-05T11:29:34.594Z,15.25
2023-05-05T11:30:34.570Z,14.28
2023-05-05T11:31:34.651Z,12.60
2023-05-05T11:32:34.656Z,12.88
2023-05-05T11:33:34.546Z,12.10
2023-05-05T11:34:34.502Z,13.49
2023-05-05T11:35:34.494Z,14.30
2023-05-05T11:36:34.475Z,13.95
2023-05-05T11:37:34.799Z,12.88
2023-05-05T11:38:34.454Z,12.36
2023-05-05T11:39:34.451Z,14.47
2023-05-05T11:40:34.445Z,12.86
2023-05-05T11:41:34.432Z,14.93
2023-05-05T11:42:34.695Z,14.47
2023-05-05T11:43:34.410Z,13.50
2023-05-05T11:44:34.382Z,15.50
2023-05-05T11:45:34.388Z,13.60
2023-05-05T11:46:35.471Z,13.32
2023-05-05T11:47:34.753Z,13.12
2023-05-05T11:48:34.346Z,14.35
2023-05-05T11:49:34.368Z,13.09
2023-05-05T11:50:34.325Z,13.76
2023-05-05T11:51:34.640Z,13.12
2023-05-05T11:52:34.606Z,13.27
2023-05-05T11:53:34.302Z,12.69
2023-05-05T11:54:34.314Z,13.52
2023-05-05T11:55:34.289Z,14.04
2023-05-05T11:56:34.278Z,15.13
2023-05-05T11:57:34.256Z,13.92
2023-05-05T11:58:34.254Z,13.49
2023-05-05T11:59:34.283Z,13.45
2023-05-05T12:00:34.576Z,12.76
2023-05-05T12:01:34.575Z,12.71
2023-05-05T12:02:34.239Z,12.45
2023-05-05T12:03:34.296Z,13.23
2023-05-05T12:04:34.198Z,14.35
2023-05-05T12:05:36.474Z,14.06
2023-05-05T12:06:34.166Z,14.04
2023-05-05T12:07:34.162Z,14.17
2023-05-05T12:08:34.141Z,13.77
2023-05-05T12:09:34.139Z,12.39
2023-05-05T12:10:34.490Z,12.45
2023-05-05T12:11:34.247Z,12.43
2023-05-05T12:12:34.117Z,12.14
2023-05-05T12:13:34.102Z,11.37
2023-05-05T12:14:34.418Z,11.27
2023-05-05T12:15:34.378Z,11.25
2023-05-05T12:16:34.085Z,11.30
2023-05-05T12:17:34.108Z,11.79
2023-05-05T12:18:34.034Z,11.23
2023-05-05T12:19:34.049Z,10.72
2023-05-05T12:20:34.020Z,11.39
2023-05-05T12:21:34.009Z,11.63
2023-05-05T12:22:33.987Z,11.85
2023-05-05T12:23:33.983Z,11.93
2023-05-05T12:24:33.981Z,13.44
2023-05-05T12:25:33.985Z,14.60
2023-05-05T12:26:33.953Z,13.46
2023-05-05T12:27:33.947Z,14.74
2023-05-05T12:28:33.949Z,15.09
2023-05-05T12:29:33.945Z,15.74
2023-05-05T12:30:33.952Z,16.14
2023-05-05T12:31:33.935Z,17.15
2023-05-05T12:32:33.910Z,16.56
2023-05-05T12:33:34.238Z,17.74
2023-05-05T12:34:33.898Z,18.41
2023-05-05T12:35:33.865Z,18.37
2023-05-05T12:36:33.845Z,18.45
2023-05-05T12:37:33.857Z,18.83
2023-05-05T12:38:33.863Z,19.39
2023-05-05T12:39:33.839Z,18.54
2023-05-05T12:40:33.811Z,17.23
2023-05-05T12:41:33.810Z,19.66
2023-05-05T12:42:33.800Z,19.32
2023-05-05T12:43:33.774Z,19.02
2023-05-05T12:44:33.764Z,18.93
2023-05-05T12:45:33.778Z,19.92
2023-05-05T12:46:34.128Z,19.46
2023-05-05T12:47:33.805Z,19.85
2023-05-05T12:48:33.740Z,19.52
2023-05-05T12:49:33.711Z,19.12
2023-05-05T12:50:33.714Z,20.11
2023-05-05T12:51:33.945Z,19.66
2023-05-05T12:52:33.701Z,21.04
2023-05-05T12:53:33.672Z,19.07
2023-05-05T12:54:33.661Z,19.33
2023-05-05T12:55:33.652Z,19.80
2023-05-05T12:56:33.917Z,19.46
2023-05-05T12:57:33.630Z,19.71
2023-05-05T12:58:33.617Z,19.20
2023-05-05T12:59:33.611Z,19.43
2023-05-05T13:00:33.591Z,19.56
2023-05-05T13:01:34.177Z,19.89